sensor_id;sensor_type;location;lat;lon;timestamp;pressure;altitude;pressure_sealevel;temperature;humidity
77482;BME280;66582;43.004;-75.010;2023-04-25T00:00:50;100436.15;;;9.31;45.97
77482;BME280;66582;43.004;-75.010;2023-04-25T00:03:14;100441.36;;;9.63;47.85
77482;BME280;66582;43.004;-75.010;2023-04-25T00:05:40;100450.34;;;8.54;49.17
77482;BME280;66582;43.004;-75.010;2023-04-25T00:08:05;100453.14;;;8.37;50.47
77482;BME280;66582;43.004;-75.010;2023-04-25T00:10:30;100451.12;;;9.21;49.74
77482;BME280;66582;43.004;-75.010;2023-04-25T00:12:55;100453.76;;;8.83;49.50
77482;BME280;66582;43.004;-75.010;2023-04-25T00:15:21;100456.19;;;9.22;48.50
77482;BME280;66582;43.004;-75.010;2023-04-25T00:17:45;100462.16;;;9.88;46.80
77482;BME280;66582;43.004;-75.010;2023-04-25T00:20:12;100458.25;;;10.59;44.62
77482;BME280;66582;43.004;-75.010;2023-04-25T00:22:36;100461.00;;;9.91;46.34
77482;BME280;66582;43.004;-75.010;2023-04-25T00:25:01;100461.68;;;10.81;44.35
77482;BME280;66582;43.004;-75.010;2023-04-25T00:27:26;100465.08;;;10.42;44.95
77482;BME280;66582;43.004;-75.010;2023-04-25T00:29:52;100469.20;;;10.13;46.55
77482;BME280;66582;43.004;-75.010;2023-04-25T00:32:16;100479.07;;;9.11;47.37
77482;BME280;66582;43.004;-75.010;2023-04-25T00:34:41;100484.35;;;9.84;46.83
77482;BME280;66582;43.004;-75.010;2023-04-25T00:37:06;100482.73;;;10.67;44.93
77482;BME280;66582;43.004;-75.010;2023-04-25T00:39:32;100492.29;;;9.44;46.90
77482;BME280;66582;43.004;-75.010;2023-04-25T00:41:58;100495.68;;;9.56;47.00
77482;BME280;66582;43.004;-75.010;2023-04-25T00:44:22;100499.15;;;8.92;48.61
77482;BME280;66582;43.004;-75.010;2023-04-25T00:46:48;100500.92;;;9.39;47.44
77482;BME280;66582;43.004;-75.010;2023-04-25T00:49:13;100513.13;;;7.88;50.63
77482;BME280;66582;43.004;-75.010;2023-04-25T00:51:39;100509.12;;;8.95;49.49
77482;BME280;66582;43.004;-75.010;2023-04-25T00:54:04;100508.10;;;9.33;48.22
77482;BME280;66582;43.004;-75.010;2023-04-25T00:56:28;100514.11;;;8.28;49.66
77482;BME280;66582;43.004;-75.010;2023-04-25T00:58:54;100521.94;;;6.55;55.60
77482;BME280;66582;43.004;-75.010;2023-04-25T01:01:19;100522.49;;;7.39;55.21
77482;BME280;66582;43.004;-75.010;2023-04-25T01:03:46;100523.10;;;7.64;52.89
77482;BME280;66582;43.004;-75.010;2023-04-25T01:06:09;100531.04;;;6.93;56.26
77482;BME280;66582;43.004;-75.010;2023-04-25T01:08:34;100537.51;;;7.57;56.13
77482;BME280;66582;43.004;-75.010;2023-04-25T01:10:59;100543.62;;;6.91;58.57
77482;BME280;66582;43.004;-75.010;2023-04-25T01:13:25;100546.35;;;5.99;58.93
77482;BME280;66582;43.004;-75.010;2023-04-25T01:15:49;100550.17;;;5.38;63.45
77482;BME280;66582;43.004;-75.010;2023-04-25T01:18:15;100547.95;;;7.04;58.20
77482;BME280;66582;43.004;-75.010;2023-04-25T01:20:42;100550.39;;;6.19;61.48
77482;BME280;66582;43.004;-75.010;2023-04-25T01:23:06;100554.90;;;4.71;63.37
77482;BME280;66582;43.004;-75.010;2023-04-25T01:25:32;100558.76;;;4.61;66.93
77482;BME280;66582;43.004;-75.010;2023-04-25T01:27:56;100559.55;;;4.44;66.27
77482;BME280;66582;43.004;-75.010;2023-04-25T01:30:21;100554.67;;;5.69;63.87
77482;BME280;66582;43.004;-75.010;2023-04-25T01:32:47;100557.65;;;5.10;64.89
77482;BME280;66582;43.004;-75.010;2023-04-25T01:35:12;100556.50;;;5.45;64.08
77482;BME280;66582;43.004;-75.010;2023-04-25T01:37:38;100556.28;;;5.56;63.21
77482;BME280;66582;43.004;-75.010;2023-04-25T01:40:02;100548.74;;;6.98;57.95
77482;BME280;66582;43.004;-75.010;2023-04-25T01:42:26;100561.52;;;3.85;70.95
77482;BME280;66582;43.004;-75.010;2023-04-25T01:44:53;100555.48;;;5.26;66.16
77482;BME280;66582;43.004;-75.010;2023-04-25T01:47:17;100563.25;;;4.51;68.70
77482;BME280;66582;43.004;-75.010;2023-04-25T01:49:42;100563.53;;;5.01;65.26
77482;BME280;66582;43.004;-75.010;2023-04-25T01:52:08;100563.95;;;5.32;62.77
77482;BME280;66582;43.004;-75.010;2023-04-25T01:54:33;100567.54;;;5.69;65.17
77482;BME280;66582;43.004;-75.010;2023-04-25T01:56:58;100567.67;;;7.29;58.84
77482;BME280;66582;43.004;-75.010;2023-04-25T01:59:23;100570.45;;;6.58;59.23
77482;BME280;66582;43.004;-75.010;2023-04-25T02:01:48;100574.64;;;7.01;58.64
77482;BME280;66582;43.004;-75.010;2023-04-25T02:04:13;100581.45;;;5.99;61.36
77482;BME280;66582;43.004;-75.010;2023-04-25T02:06:38;100581.11;;;7.37;56.87
77482;BME280;66582;43.004;-75.010;2023-04-25T02:09:04;100581.55;;;6.06;59.46
77482;BME280;66582;43.004;-75.010;2023-04-25T02:11:29;100585.69;;;5.41;61.62
77482;BME280;66582;43.004;-75.010;2023-04-25T02:13:54;100588.22;;;4.96;65.70
77482;BME280;66582;43.004;-75.010;2023-04-25T02:16:20;100585.08;;;5.62;63.38
77482;BME280;66582;43.004;-75.010;2023-04-25T02:18:46;100588.40;;;4.57;65.44
77482;BME280;66582;43.004;-75.010;2023-04-25T02:21:10;100586.96;;;4.69;62.19
77482;BME280;66582;43.004;-75.010;2023-04-25T02:23:35;100585.42;;;4.93;62.16
77482;BME280;66582;43.004;-75.010;2023-04-25T02:26:00;100579.58;;;5.95;56.59
77482;BME280;66582;43.004;-75.010;2023-04-25T02:28:25;100587.60;;;4.70;58.66
77482;BME280;66582;43.004;-75.010;2023-04-25T02:30:50;100589.49;;;5.20;58.84
77482;BME280;66582;43.004;-75.010;2023-04-25T02:33:15;100587.67;;;5.76;58.84
77482;BME280;66582;43.004;-75.010;2023-04-25T02:35:40;100577.59;;;6.42;55.78
77482;BME280;66582;43.004;-75.010;2023-04-25T02:38:06;100576.57;;;6.67;54.83
77482;BME280;66582;43.004;-75.010;2023-04-25T02:40:31;100575.25;;;6.84;52.56
77482;BME280;66582;43.004;-75.010;2023-04-25T02:42:56;100571.73;;;8.44;48.64
77482;BME280;66582;43.004;-75.010;2023-04-25T02:45:21;100570.99;;;8.51;47.54
77482;BME280;66582;43.004;-75.010;2023-04-25T02:47:47;100576.52;;;6.78;51.07
77482;BME280;66582;43.004;-75.010;2023-04-25T02:50:12;100591.47;;;5.00;58.88
77482;BME280;66582;43.004;-75.010;2023-04-25T02:52:37;100592.48;;;4.88;61.95
77482;BME280;66582;43.004;-75.010;2023-04-25T02:55:02;100588.78;;;6.06;57.79
77482;BME280;66582;43.004;-75.010;2023-04-25T02:57:27;100589.59;;;6.26;56.23
77482;BME280;66582;43.004;-75.010;2023-04-25T02:59:53;100596.07;;;5.78;57.48
77482;BME280;66582;43.004;-75.010;2023-04-25T03:02:18;100600.58;;;5.86;58.08
77482;BME280;66582;43.004;-75.010;2023-04-25T03:04:43;100600.92;;;6.28;55.27
77482;BME280;66582;43.004;-75.010;2023-04-25T03:07:09;100611.88;;;5.33;58.76
77482;BME280;66582;43.004;-75.010;2023-04-25T03:09:33;100616.25;;;5.24;60.19
77482;BME280;66582;43.004;-75.010;2023-04-25T03:11:58;100618.56;;;5.35;57.87
77482;BME280;66582;43.004;-75.010;2023-04-25T03:14:23;100616.00;;;6.14;56.84
77482;BME280;66582;43.004;-75.010;2023-04-25T03:16:49;100610.03;;;7.29;53.54
77482;BME280;66582;43.004;-75.010;2023-04-25T03:19:14;100612.98;;;6.88;53.53
77482;BME280;66582;43.004;-75.010;2023-04-25T03:21:39;100617.89;;;6.55;55.51
77482;BME280;66582;43.004;-75.010;2023-04-25T03:24:05;100628.03;;;5.56;58.12
77482;BME280;66582;43.004;-75.010;2023-04-25T03:26:30;100625.43;;;6.15;54.97
77482;BME280;66582;43.004;-75.010;2023-04-25T03:28:55;100621.84;;;6.64;54.47
77482;BME280;66582;43.004;-75.010;2023-04-25T03:31:20;100627.69;;;5.84;56.53
77482;BME280;66582;43.004;-75.010;2023-04-25T03:33:45;100634.88;;;4.96;59.73
77482;BME280;66582;43.004;-75.010;2023-04-25T03:36:10;100637.93;;;4.00;63.25
77482;BME280;66582;43.004;-75.010;2023-04-25T03:38:35;100637.38;;;4.39;65.36
77482;BME280;66582;43.004;-75.010;2023-04-25T03:41:02;100633.53;;;4.91;62.79
77482;BME280;66582;43.004;-75.010;2023-04-25T03:43:26;100635.39;;;4.66;63.66
77482;BME280;66582;43.004;-75.010;2023-04-25T03:45:52;100637.94;;;3.89;66.62
77482;BME280;66582;43.004;-75.010;2023-04-25T03:48:17;100640.58;;;4.43;65.06
77482;BME280;66582;43.004;-75.010;2023-04-25T03:50:41;100638.58;;;5.12;61.71
77482;BME280;66582;43.004;-75.010;2023-04-25T03:53:07;100653.67;;;1.69;76.23
77482;BME280;66582;43.004;-75.010;2023-04-25T03:55:32;100655.65;;;2.82;76.76
77482;BME280;66582;43.004;-75.010;2023-04-25T03:57:58;100648.96;;;3.67;70.09
77482;BME280;66582;43.004;-75.010;2023-04-25T04:00:23;100651.02;;;3.80;70.27
77482;BME280;66582;43.004;-75.010;2023-04-25T04:02:48;100659.51;;;2.44;76.06
77482;BME280;66582;43.004;-75.010;2023-04-25T04:05:14;100662.43;;;2.87;76.60
77482;BME280;66582;43.004;-75.010;2023-04-25T04:07:38;100662.45;;;2.69;77.44
77482;BME280;66582;43.004;-75.010;2023-04-25T04:10:04;100659.10;;;2.95;73.97
77482;BME280;66582;43.004;-75.010;2023-04-25T04:12:28;100670.55;;;1.25;81.53
77482;BME280;66582;43.004;-75.010;2023-04-25T04:14:54;100668.39;;;1.54;83.81
77482;BME280;66582;43.004;-75.010;2023-04-25T04:17:19;100666.51;;;2.85;77.86
77482;BME280;66582;43.004;-75.010;2023-04-25T04:19:45;100666.25;;;2.11;81.23
77482;BME280;66582;43.004;-75.010;2023-04-25T04:22:10;100669.08;;;2.79;79.43
77482;BME280;66582;43.004;-75.010;2023-04-25T04:24:35;100661.31;;;3.77;74.17
77482;BME280;66582;43.004;-75.010;2023-04-25T04:27:01;100660.29;;;4.54;68.46
77482;BME280;66582;43.004;-75.010;2023-04-25T04:29:25;100664.48;;;3.20;72.95
77482;BME280;66582;43.004;-75.010;2023-04-25T04:31:52;100670.79;;;2.55;75.69
77482;BME280;66582;43.004;-75.010;2023-04-25T04:34:16;100673.63;;;2.02;80.31
77482;BME280;66582;43.004;-75.010;2023-04-25T04:36:42;100675.66;;;1.83;84.71
77482;BME280;66582;43.004;-75.010;2023-04-25T04:39:07;100677.13;;;1.00;85.86
77482;BME280;66582;43.004;-75.010;2023-04-25T04:41:32;100682.21;;;0.89;87.82
77482;BME280;66582;43.004;-75.010;2023-04-25T04:43:57;100675.62;;;2.71;80.61
77482;BME280;66582;43.004;-75.010;2023-04-25T04:46:22;100682.73;;;1.36;80.51
77482;BME280;66582;43.004;-75.010;2023-04-25T04:48:48;100683.20;;;1.77;84.05
77482;BME280;66582;43.004;-75.010;2023-04-25T04:51:13;100684.77;;;2.26;82.25
77482;BME280;66582;43.004;-75.010;2023-04-25T04:53:38;100679.14;;;2.12;79.98
77482;BME280;66582;43.004;-75.010;2023-04-25T04:56:04;100688.52;;;0.58;85.06
77482;BME280;66582;43.004;-75.010;2023-04-25T04:58:29;100680.57;;;2.27;82.66
77482;BME280;66582;43.004;-75.010;2023-04-25T05:00:54;100683.87;;;2.40;81.77
77482;BME280;66582;43.004;-75.010;2023-04-25T05:03:19;100688.24;;;1.75;80.35
77482;BME280;66582;43.004;-75.010;2023-04-25T05:05:45;100686.32;;;2.02;81.50
77482;BME280;66582;43.004;-75.010;2023-04-25T05:08:10;100689.71;;;1.90;81.02
77482;BME280;66582;43.004;-75.010;2023-04-25T05:10:35;100684.35;;;2.30;79.16
77482;BME280;66582;43.004;-75.010;2023-04-25T05:13:00;100696.28;;;0.85;85.97
77482;BME280;66582;43.004;-75.010;2023-04-25T05:15:25;100694.82;;;2.44;80.93
77482;BME280;66582;43.004;-75.010;2023-04-25T05:17:50;100688.54;;;2.28;79.91
77482;BME280;66582;43.004;-75.010;2023-04-25T05:20:15;100685.49;;;2.95;77.28
77482;BME280;66582;43.004;-75.010;2023-04-25T05:22:41;100686.58;;;2.16;78.85
77482;BME280;66582;43.004;-75.010;2023-04-25T05:25:07;100682.95;;;3.20;75.22
77482;BME280;66582;43.004;-75.010;2023-04-25T05:27:31;100678.15;;;2.98;72.37
77482;BME280;66582;43.004;-75.010;2023-04-25T05:29:58;100678.09;;;3.41;71.32
77482;BME280;66582;43.004;-75.010;2023-04-25T05:32:23;100684.53;;;2.61;74.27
77482;BME280;66582;43.004;-75.010;2023-04-25T05:34:47;100677.92;;;3.35;72.56
77482;BME280;66582;43.004;-75.010;2023-04-25T05:37:12;100677.36;;;3.12;72.09
77482;BME280;66582;43.004;-75.010;2023-04-25T05:39:37;100678.56;;;2.50;76.05
77482;BME280;66582;43.004;-75.010;2023-04-25T05:42:02;100675.11;;;3.22;73.93
77482;BME280;66582;43.004;-75.010;2023-04-25T05:44:28;100683.73;;;1.57;79.23
77482;BME280;66582;43.004;-75.010;2023-04-25T05:46:53;100683.00;;;1.73;79.41
77482;BME280;66582;43.004;-75.010;2023-04-25T05:49:18;100672.66;;;3.15;74.46
77482;BME280;66582;43.004;-75.010;2023-04-25T05:51:43;100680.27;;;2.18;73.76
77482;BME280;66582;43.004;-75.010;2023-04-25T05:54:09;100682.71;;;2.83;73.66
77482;BME280;66582;43.004;-75.010;2023-04-25T05:56:33;100687.06;;;3.01;74.48
77482;BME280;66582;43.004;-75.010;2023-04-25T05:58:59;100691.57;;;1.79;79.24
77482;BME280;66582;43.004;-75.010;2023-04-25T06:01:24;100693.34;;;2.57;76.94
77482;BME280;66582;43.004;-75.010;2023-04-25T06:03:49;100684.81;;;3.84;69.87
77482;BME280;66582;43.004;-75.010;2023-04-25T06:06:14;100684.03;;;4.14;69.11
77482;BME280;66582;43.004;-75.010;2023-04-25T06:08:40;100682.38;;;3.69;68.57
77482;BME280;66582;43.004;-75.010;2023-04-25T06:11:05;100686.14;;;3.90;69.60
77482;BME280;66582;43.004;-75.010;2023-04-25T06:13:30;100687.63;;;4.48;65.52
77482;BME280;66582;43.004;-75.010;2023-04-25T06:15:55;100695.09;;;3.57;66.54
77482;BME280;66582;43.004;-75.010;2023-04-25T06:18:20;100690.84;;;5.12;63.19
77482;BME280;66582;43.004;-75.010;2023-04-25T06:20:45;100691.94;;;5.69;60.21
77482;BME280;66582;43.004;-75.010;2023-04-25T06:23:11;100691.42;;;5.41;60.93
77482;BME280;66582;43.004;-75.010;2023-04-25T06:25:36;100684.79;;;6.26;57.86
77482;BME280;66582;43.004;-75.010;2023-04-25T06:28:01;100689.22;;;4.78;61.04
77482;BME280;66582;43.004;-75.010;2023-04-25T06:30:26;100683.91;;;4.63;62.96
77482;BME280;66582;43.004;-75.010;2023-04-25T06:32:52;100682.56;;;4.65;61.32
77482;BME280;66582;43.004;-75.010;2023-04-25T06:35:17;100681.47;;;5.04;63.06
77482;BME280;66582;43.004;-75.010;2023-04-25T06:37:42;100678.28;;;5.23;61.47
77482;BME280;66582;43.004;-75.010;2023-04-25T06:40:08;100668.78;;;7.03;56.64
77482;BME280;66582;43.004;-75.010;2023-04-25T06:42:33;100669.96;;;6.27;58.32
77482;BME280;66582;43.004;-75.010;2023-04-25T06:44:58;100673.98;;;5.95;59.13
77482;BME280;66582;43.004;-75.010;2023-04-25T06:47:23;100675.59;;;5.50;59.78
77482;BME280;66582;43.004;-75.010;2023-04-25T06:49:49;100670.60;;;6.78;55.46
77482;BME280;66582;43.004;-75.010;2023-04-25T06:52:13;100681.64;;;4.54;61.04
77482;BME280;66582;43.004;-75.010;2023-04-25T06:54:39;100674.77;;;5.53;58.96
77482;BME280;66582;43.004;-75.010;2023-04-25T06:57:04;100674.48;;;5.21;59.40
77482;BME280;66582;43.004;-75.010;2023-04-25T06:59:29;100670.29;;;5.81;58.95
77482;BME280;66582;43.004;-75.010;2023-04-25T07:01:54;100666.47;;;6.59;55.98
77482;BME280;66582;43.004;-75.010;2023-04-25T07:04:19;100663.83;;;7.33;53.27
77482;BME280;66582;43.004;-75.010;2023-04-25T07:06:44;100663.84;;;7.16;54.13
77482;BME280;66582;43.004;-75.010;2023-04-25T07:09:10;100662.06;;;7.98;52.64
77482;BME280;66582;43.004;-75.010;2023-04-25T07:11:35;100658.90;;;8.36;50.99
77482;BME280;66582;43.004;-75.010;2023-04-25T07:14:00;100667.58;;;7.47;51.91
77482;BME280;66582;43.004;-75.010;2023-04-25T07:16:25;100672.37;;;7.43;52.24
77482;BME280;66582;43.004;-75.010;2023-04-25T07:18:50;100674.42;;;7.24;51.91
77482;BME280;66582;43.004;-75.010;2023-04-25T07:21:15;100672.30;;;8.28;50.22
77482;BME280;66582;43.004;-75.010;2023-04-25T07:23:41;100670.69;;;8.29;49.77
77482;BME280;66582;43.004;-75.010;2023-04-25T07:26:06;100670.34;;;8.63;49.09
77482;BME280;66582;43.004;-75.010;2023-04-25T07:28:31;100674.51;;;8.22;50.69
77482;BME280;66582;43.004;-75.010;2023-04-25T07:30:56;100680.15;;;7.75;50.14
77482;BME280;66582;43.004;-75.010;2023-04-25T07:33:22;100699.87;;;3.33;66.12
77482;BME280;66582;43.004;-75.010;2023-04-25T07:35:46;100706.23;;;2.72;70.85
77482;BME280;66582;43.004;-75.010;2023-04-25T07:38:12;100699.95;;;3.48;66.73
77482;BME280;66582;43.004;-75.010;2023-04-25T07:40:38;100694.59;;;5.06;65.75
77482;BME280;66582;43.004;-75.010;2023-04-25T07:43:02;100690.55;;;5.74;61.37
77482;BME280;66582;43.004;-75.010;2023-04-25T07:45:28;100696.68;;;5.23;61.39
77482;BME280;66582;43.004;-75.010;2023-04-25T07:47:53;100703.27;;;4.76;64.45
77482;BME280;66582;43.004;-75.010;2023-04-25T07:50:19;100707.54;;;4.15;67.08
77482;BME280;66582;43.004;-75.010;2023-04-25T07:52:44;100707.04;;;3.31;72.52
77482;BME280;66582;43.004;-75.010;2023-04-25T07:55:09;100712.13;;;3.27;75.34
77482;BME280;66582;43.004;-75.010;2023-04-25T07:57:35;100709.45;;;3.05;74.13
77482;BME280;66582;43.004;-75.010;2023-04-25T08:00:00;100705.38;;;3.62;73.66
77482;BME280;66582;43.004;-75.010;2023-04-25T08:02:25;100707.30;;;3.27;75.01
77482;BME280;66582;43.004;-75.010;2023-04-25T08:04:50;100709.93;;;3.40;73.88
77482;BME280;66582;43.004;-75.010;2023-04-25T08:07:15;100709.02;;;5.08;68.76
77482;BME280;66582;43.004;-75.010;2023-04-25T08:09:40;100712.90;;;4.74;67.03
77482;BME280;66582;43.004;-75.010;2023-04-25T08:12:05;100716.99;;;5.19;64.59
77482;BME280;66582;43.004;-75.010;2023-04-25T08:14:31;100717.14;;;4.75;64.59
77482;BME280;66582;43.004;-75.010;2023-04-25T08:16:56;100710.58;;;5.81;61.95
77482;BME280;66582;43.004;-75.010;2023-04-25T08:19:21;100709.17;;;5.97;59.42
77482;BME280;66582;43.004;-75.010;2023-04-25T08:21:46;100710.63;;;5.31;62.94
77482;BME280;66582;43.004;-75.010;2023-04-25T08:24:17;100706.08;;;6.84;58.41
77482;BME280;66582;43.004;-75.010;2023-04-25T08:26:36;100704.29;;;7.26;55.88
77482;BME280;66582;43.004;-75.010;2023-04-25T08:29:02;100702.10;;;7.74;55.17
77482;BME280;66582;43.004;-75.010;2023-04-25T08:31:28;100702.04;;;8.41;54.16
77482;BME280;66582;43.004;-75.010;2023-04-25T08:33:52;100698.67;;;8.82;52.41
77482;BME280;66582;43.004;-75.010;2023-04-25T08:36:18;100702.93;;;8.02;53.57
77482;BME280;66582;43.004;-75.010;2023-04-25T08:38:42;100696.51;;;8.74;52.83
77482;BME280;66582;43.004;-75.010;2023-04-25T08:41:07;100699.65;;;7.82;53.81
77482;BME280;66582;43.004;-75.010;2023-04-25T08:43:35;100696.79;;;7.61;54.27
77482;BME280;66582;43.004;-75.010;2023-04-25T08:46:00;100712.08;;;5.14;60.60
77482;BME280;66582;43.004;-75.010;2023-04-25T08:48:25;100712.50;;;5.57;60.99
77482;BME280;66582;43.004;-75.010;2023-04-25T08:50:51;100707.19;;;6.04;58.37
77482;BME280;66582;43.004;-75.010;2023-04-25T08:53:15;100708.04;;;6.80;57.30
77482;BME280;66582;43.004;-75.010;2023-04-25T08:55:41;100711.86;;;6.10;59.32
77482;BME280;66582;43.004;-75.010;2023-04-25T08:58:05;100711.89;;;5.99;60.82
77482;BME280;66582;43.004;-75.010;2023-04-25T09:00:29;100710.18;;;6.55;57.83
77482;BME280;66582;43.004;-75.010;2023-04-25T09:02:55;100708.21;;;6.33;59.54
77482;BME280;66582;43.004;-75.010;2023-04-25T09:05:21;100704.61;;;6.61;59.31
77482;BME280;66582;43.004;-75.010;2023-04-25T09:07:46;100710.36;;;5.88;61.67
77482;BME280;66582;43.004;-75.010;2023-04-25T09:10:11;100705.99;;;6.71;58.83
77482;BME280;66582;43.004;-75.010;2023-04-25T09:12:36;100714.73;;;5.59;62.19
77482;BME280;66582;43.004;-75.010;2023-04-25T09:15:04;100713.77;;;5.60;63.95
77482;BME280;66582;43.004;-75.010;2023-04-25T09:17:27;100708.48;;;6.48;62.37
77482;BME280;66582;43.004;-75.010;2023-04-25T09:19:51;100698.97;;;8.21;57.25
77482;BME280;66582;43.004;-75.010;2023-04-25T09:22:18;100697.45;;;9.27;53.52
77482;BME280;66582;43.004;-75.010;2023-04-25T09:24:44;100694.18;;;8.86;52.43
77482;BME280;66582;43.004;-75.010;2023-04-25T09:27:09;100699.12;;;6.70;56.65
77482;BME280;66582;43.004;-75.010;2023-04-25T09:29:34;100699.36;;;7.15;56.53
77482;BME280;66582;43.004;-75.010;2023-04-25T09:34:26;100699.35;;;9.53;50.67
77482;BME280;66582;43.004;-75.010;2023-04-25T09:36:48;100697.84;;;8.77;50.60
77482;BME280;66582;43.004;-75.010;2023-04-25T09:39:13;100699.34;;;9.62;49.52
77482;BME280;66582;43.004;-75.010;2023-04-25T09:41:39;100706.62;;;8.25;53.81
77482;BME280;66582;43.004;-75.010;2023-04-25T09:44:03;100704.05;;;8.00;55.15
77482;BME280;66582;43.004;-75.010;2023-04-25T09:46:33;100701.67;;;8.69;52.34
77482;BME280;66582;43.004;-75.010;2023-04-25T09:48:54;100701.94;;;7.76;54.41
77482;BME280;66582;43.004;-75.010;2023-04-25T09:51:19;100703.62;;;8.45;52.36
77482;BME280;66582;43.004;-75.010;2023-04-25T09:53:45;100707.30;;;7.45;54.60
77482;BME280;66582;43.004;-75.010;2023-04-25T09:56:10;100706.99;;;9.45;50.62
77482;BME280;66582;43.004;-75.010;2023-04-25T09:58:35;100707.82;;;9.07;51.21
77482;BME280;66582;43.004;-75.010;2023-04-25T10:01:02;100712.92;;;8.31;53.37
77482;BME280;66582;43.004;-75.010;2023-04-25T10:03:26;100714.33;;;8.80;53.09
77482;BME280;66582;43.004;-75.010;2023-04-25T10:05:50;100716.30;;;8.81;52.50
77482;BME280;66582;43.004;-75.010;2023-04-25T10:08:16;100715.88;;;8.87;52.67
77482;BME280;66582;43.004;-75.010;2023-04-25T10:10:41;100718.54;;;9.06;52.68
77482;BME280;66582;43.004;-75.010;2023-04-25T10:13:06;100715.61;;;9.90;49.81
77482;BME280;66582;43.004;-75.010;2023-04-25T10:15:33;100719.62;;;9.16;50.53
77482;BME280;66582;43.004;-75.010;2023-04-25T10:17:57;100714.12;;;9.62;50.01
77482;BME280;66582;43.004;-75.010;2023-04-25T10:20:22;100713.66;;;8.86;51.18
77482;BME280;66582;43.004;-75.010;2023-04-25T10:22:48;100719.37;;;7.34;54.48
77482;BME280;66582;43.004;-75.010;2023-04-25T10:25:11;100732.67;;;5.66;63.83
77482;BME280;66582;43.004;-75.010;2023-04-25T10:27:38;100725.51;;;7.39;60.44
77482;BME280;66582;43.004;-75.010;2023-04-25T10:30:04;100725.17;;;7.08;60.64
77482;BME280;66582;43.004;-75.010;2023-04-25T10:32:28;100723.59;;;7.29;58.89
77482;BME280;66582;43.004;-75.010;2023-04-25T10:34:54;100717.56;;;7.79;56.99
77482;BME280;66582;43.004;-75.010;2023-04-25T10:37:19;100726.99;;;6.78;57.70
77482;BME280;66582;43.004;-75.010;2023-04-25T10:39:43;100729.87;;;7.42;57.82
77482;BME280;66582;43.004;-75.010;2023-04-25T10:42:10;100737.00;;;7.34;58.49
77482;BME280;66582;43.004;-75.010;2023-04-25T10:44:34;100733.23;;;8.32;56.20
77482;BME280;66582;43.004;-75.010;2023-04-25T10:47:00;100733.26;;;9.35;53.76
77482;BME280;66582;43.004;-75.010;2023-04-25T10:49:31;100742.93;;;7.35;56.37
77482;BME280;66582;43.004;-75.010;2023-04-25T10:51:49;100748.54;;;7.29;58.59
77482;BME280;66582;43.004;-75.010;2023-04-25T10:54:18;100753.01;;;6.97;59.69
77482;BME280;66582;43.004;-75.010;2023-04-25T10:56:42;100749.40;;;8.12;55.68
77482;BME280;66582;43.004;-75.010;2023-04-25T10:59:08;100753.96;;;8.44;55.16
77482;BME280;66582;43.004;-75.010;2023-04-25T11:01:37;100756.64;;;7.84;55.93
77482;BME280;66582;43.004;-75.010;2023-04-25T11:03:58;100760.87;;;8.10;56.61
77482;BME280;66582;43.004;-75.010;2023-04-25T11:06:26;100761.05;;;8.85;55.29
77482;BME280;66582;43.004;-75.010;2023-04-25T11:08:49;100763.66;;;8.39;55.18
77482;BME280;66582;43.004;-75.010;2023-04-25T11:11:13;100768.59;;;7.52;57.48
77482;BME280;66582;43.004;-75.010;2023-04-25T11:13:37;100769.91;;;6.91;60.69
77482;BME280;66582;43.004;-75.010;2023-04-25T11:16:07;100780.10;;;6.32;63.40
77482;BME280;66582;43.004;-75.010;2023-04-25T11:18:28;100786.07;;;5.83;65.67
77482;BME280;66582;43.004;-75.010;2023-04-25T11:20:53;100788.09;;;6.29;64.86
77482;BME280;66582;43.004;-75.010;2023-04-25T11:23:19;100789.96;;;5.96;64.28
77482;BME280;66582;43.004;-75.010;2023-04-25T11:25:44;100790.83;;;6.95;63.10
77482;BME280;66582;43.004;-75.010;2023-04-25T11:28:09;100786.05;;;7.46;59.87
77482;BME280;66582;43.004;-75.010;2023-04-25T11:30:34;100786.70;;;7.14;60.22
77482;BME280;66582;43.004;-75.010;2023-04-25T11:33:00;100781.92;;;8.43;57.66
77482;BME280;66582;43.004;-75.010;2023-04-25T11:35:25;100780.44;;;9.22;53.35
77482;BME280;66582;43.004;-75.010;2023-04-25T11:37:50;100787.62;;;9.17;53.59
77482;BME280;66582;43.004;-75.010;2023-04-25T11:40:15;100789.02;;;10.28;51.16
77482;BME280;66582;43.004;-75.010;2023-04-25T11:42:44;100792.68;;;10.24;50.97
77482;BME280;66582;43.004;-75.010;2023-04-25T11:45:07;100799.73;;;8.28;52.21
77482;BME280;66582;43.004;-75.010;2023-04-25T11:47:30;100798.78;;;9.62;51.06
77482;BME280;66582;43.004;-75.010;2023-04-25T11:49:57;100798.27;;;10.11;51.08
77482;BME280;66582;43.004;-75.010;2023-04-25T11:52:21;100797.15;;;11.04;48.92
77482;BME280;66582;43.004;-75.010;2023-04-25T11:54:46;100800.87;;;9.04;50.60
77482;BME280;66582;43.004;-75.010;2023-04-25T11:57:12;100813.07;;;6.76;59.55
77482;BME280;66582;43.004;-75.010;2023-04-25T11:59:38;100800.41;;;8.83;54.60
77482;BME280;66582;43.004;-75.010;2023-04-25T12:02:03;100798.18;;;9.36;54.54
77482;BME280;66582;43.004;-75.010;2023-04-25T12:04:30;100797.30;;;9.18;53.93
77482;BME280;66582;43.004;-75.010;2023-04-25T12:06:54;100793.47;;;9.43;52.95
77482;BME280;66582;43.004;-75.010;2023-04-25T12:09:21;100790.94;;;10.14;51.02
77482;BME280;66582;43.004;-75.010;2023-04-25T12:11:46;100793.91;;;10.06;50.77
77482;BME280;66582;43.004;-75.010;2023-04-25T12:14:11;100791.18;;;10.98;49.02
77482;BME280;66582;43.004;-75.010;2023-04-25T12:16:42;100794.09;;;10.60;48.64
77482;BME280;66582;43.004;-75.010;2023-04-25T12:19:01;100798.96;;;9.74;49.30
77482;BME280;66582;43.004;-75.010;2023-04-25T12:21:29;100793.78;;;10.78;47.20
77482;BME280;66582;43.004;-75.010;2023-04-25T12:23:52;100791.85;;;11.02;48.58
77482;BME280;66582;43.004;-75.010;2023-04-25T12:26:18;100797.86;;;9.17;48.33
77482;BME280;66582;43.004;-75.010;2023-04-25T12:28:46;100790.67;;;11.40;45.82
77482;BME280;66582;43.004;-75.010;2023-04-25T12:31:07;100795.47;;;9.99;47.06